Time;durP1;ratioP1;P1;durP2;ratioP2;P2;SDS_P1;SDS_P2;PMS_P1;PMS_P2;Temp;Humidity;BMP_temperature;BMP_pressure;BME280_temperature;BME280_humidity;BME280_pressure;Samples;Min_cycle;Max_cycle;Signal;HPM_P1;HPM_P2
2023/01/17 00:01:54;;;;;;;1.35;0.10;;;;;;;;;;5063442;28;20040;-84
2023/01/17 00:09:57;;;;;;;4.13;0.20;;;3.20;99.90;;;;;;5056770;28;20547;-85
2023/01/17 00:12:29;;;;;;;3.72;0.40;;;4.00;99.90;;;;;;5052733;28;20156;-87
2023/01/17 00:14:56;;;;;;;4.25;0.28;;;3.80;99.90;;;;;;5037754;28;20045;-84
2023/01/17 00:17:24;;;;;;;3.15;0.10;;;3.00;99.90;;;;;;5035329;28;20051;-89
2023/01/17 01:35:19;;;;;;;6.13;0.60;;;4.40;99.90;;;;;;5043534;28;20059;-85
2023/01/17 01:37:44;;;;;;;5.15;0.65;;;4.20;99.90;;;;;;5035936;28;20438;-87
2023/01/17 01:40:11;;;;;;;3.75;0.60;;;3.80;99.90;;;;;;5051210;28;20037;-85
2023/01/17 01:42:36;;;;;;;1.65;0.10;;;2.50;99.90;;;;;;5042051;28;20595;-87
2023/01/17 01:45:16;;;;;;;4.57;0.20;;;4.10;99.90;;;;;;5051538;28;20036;-88
2023/01/17 01:47:43;;;;;;;2.13;0.40;;;2.60;99.90;;;;;;5053680;28;20493;-89
2023/01/17 01:50:12;;;;;;;2.45;0.40;;;2.60;99.90;;;;;;5045289;28;20053;-88
2023/01/17 01:52:44;;;;;;;2.80;0.35;;;3.70;99.90;;;;;;5049216;28;20124;-89
2023/01/17 01:55:22;;;;;;;3.88;0.38;;;3.90;99.90;;;;;;5029910;28;20104;-87
2023/01/17 01:57:52;;;;;;;3.22;0.70;;;2.40;99.90;;;;;;5053659;28;20037;-89
2023/01/17 02:00:23;;;;;;;5.85;0.52;;;2.50;99.90;;;;;;5035200;28;20110;-87
2023/01/17 02:02:51;;;;;;;8.05;1.02;;;2.60;99.90;;;;;;5018680;28;20051;-90
2023/01/17 02:05:21;;;;;;;3.78;0.32;;;2.60;99.90;;;;;;5043881;28;20048;-87
2023/01/17 02:08:06;;;;;;;5.75;1.20;;;2.70;99.90;;;;;;5041976;28;20037;-89
2023/01/17 02:10:34;;;;;;;10.18;0.88;;;2.70;99.90;;;;;;5049786;28;20091;-87
2023/01/17 02:13:01;;;;;;;10.68;0.63;;;4.30;99.90;;;;;;5046704;28;20037;-89
2023/01/17 02:15:40;;;;;;;6.22;0.38;;;2.60;99.90;;;;;;5030872;28;20470;-89
2023/01/17 02:18:05;;;;;;;3.53;0.70;;;2.50;99.90;;;;;;5035578;28;20051;-84
2023/01/17 02:21:00;;;;;;;5.20;0.70;;;2.50;99.90;;;;;;5059301;28;20131;-86
2023/01/17 02:23:46;;;;;;;9.00;1.00;;;2.50;99.90;;;;;;5040502;28;20049;-88
2023/01/17 02:26:46;;;;;;;14.02;1.25;;;2.50;99.90;;;;;;5043044;28;20545;-85
2023/01/17 02:29:51;;;;;;;9.10;0.55;;;2.50;99.90;;;;;;5045091;28;20040;-88
2023/01/17 02:32:37;;;;;;;8.38;0.40;;;2.50;99.90;;;;;;5037617;28;20381;-87
2023/01/17 02:35:20;;;;;;;7.40;0.50;;;2.50;99.90;;;;;;5053577;28;20524;-86
2023/01/17 02:37:58;;;;;;;9.88;1.27;;;2.50;99.90;;;;;;5030782;28;20107;-85
2023/01/17 02:40:36;;;;;;;12.30;0.85;;;2.50;99.90;;;;;;5049926;28;20044;-85
2023/01/17 02:43:08;;;;;;;10.73;0.98;;;2.60;99.90;;;;;;5035814;28;20084;-84
2023/01/17 02:45:34;;;;;;;8.32;0.60;;;2.60;99.90;;;;;;5036031;28;20040;-87
2023/01/17 02:47:59;;;;;;;9.00;1.00;;;2.50;99.90;;;;;;5065694;28;20052;-87
2023/01/17 02:50:44;;;;;;;8.60;0.63;;;2.20;99.90;;;;;;5028657;28;20045;-84
2023/01/17 02:53:29;;;;;;;16.17;1.23;;;2.60;99.90;;;;;;5065520;28;20045;-85
2023/01/17 02:56:09;;;;;;;7.38;0.57;;;2.50;99.90;;;;;;5058537;28;20443;-85
2023/01/17 02:58:59;;;;;;;4.18;0.45;;;2.60;99.90;;;;;;5046123;28;20111;-86
2023/01/17 03:01:32;;;;;;;5.10;0.82;;;2.70;99.90;;;;;;5036648;28;20052;-85
2023/01/17 03:04:05;;;;;;;5.95;0.43;;;2.60;99.90;;;;;;5059565;28;20071;-87
2023/01/17 03:06:55;;;;;;;6.78;1.02;;;2.60;99.90;;;;;;5067442;28;20415;-87
2023/01/17 03:09:21;;;;;;;6.63;1.65;;;2.50;99.90;;;;;;5060837;28;20449;-89
2023/01/17 03:11:47;;;;;;;5.15;0.22;;;2.50;99.90;;;;;;5068353;28;20041;-88
2023/01/17 03:14:13;;;;;;;7.22;0.85;;;2.40;99.90;;;;;;5045973;28;20102;-86
2023/01/17 03:16:38;;;;;;;4.28;0.20;;;2.90;99.90;;;;;;5041274;28;20056;-86
2023/01/17 03:19:04;;;;;;;3.78;0.32;;;2.30;99.90;;;;;;5048261;28;20057;-87
2023/01/17 03:21:30;;;;;;;3.00;0.40;;;2.10;99.90;;;;;;5050480;28;20433;-85
2023/01/17 03:23:55;;;;;;;4.50;1.08;;;2.20;99.90;;;;;;5051182;28;20053;-85
2023/01/17 03:26:21;;;;;;;4.13;0.20;;;2.70;99.90;;;;;;5033075;28;20041;-86
2023/01/17 03:28:47;;;;;;;2.75;0.60;;;4.40;99.90;;;;;;5050717;28;20041;-88
2023/01/17 03:31:14;;;;;;;7.68;0.85;;;2.00;99.90;;;;;;5034365;28;20044;-89
2023/01/17 03:33:40;;;;;;;2.58;0.65;;;2.30;99.90;;;;;;5051307;28;20040;-86
2023/01/17 03:36:05;;;;;;;3.25;0.40;;;4.10;99.90;;;;;;5034703;28;20036;-86
2023/01/17 03:38:31;;;;;;;10.73;0.60;;;2.50;99.90;;;;;;5051143;28;20041;-85
2023/01/17 03:40:57;;;;;;;3.92;0.40;;;2.40;99.90;;;;;;5034713;28;20033;-88
2023/01/17 03:43:23;;;;;;;6.70;0.93;;;2.50;99.90;;;;;;5052718;28;20064;-84
2023/01/17 03:45:50;;;;;;;5.30;0.30;;;2.30;99.90;;;;;;5053416;28;20499;-88
2023/01/17 03:48:17;;;;;;;9.13;0.75;;;4.20;99.90;;;;;;5054202;28;20103;-87
2023/01/17 03:50:43;;;;;;;4.88;0.40;;;2.40;99.90;;;;;;5035295;28;20124;-87
2023/01/17 03:53:09;;;;;;;7.20;0.98;;;4.10;99.90;;;;;;5034996;28;20137;-87
2023/01/17 03:55:35;;;;;;;6.47;0.40;;;2.30;99.90;;;;;;5050681;28;20072;-85
2023/01/17 03:58:00;;;;;;;5.30;0.57;;;1.20;99.90;;;;;;5035197;28;20045;-86
2023/01/17 04:00:26;;;;;;;10.20;1.10;;;4.20;99.90;;;;;;5051165;28;20037;-86
2023/01/17 04:02:52;;;;;;;5.95;0.50;;;2.40;99.90;;;;;;5051112;28;20045;-85
2023/01/17 04:05:17;;;;;;;3.47;0.60;;;4.50;99.90;;;;;;5028797;28;20432;-88
2023/01/17 04:07:43;;;;;;;9.13;1.30;;;2.40;99.90;;;;;;5050377;28;20048;-87
2023/01/17 04:10:10;;;;;;;6.03;0.63;;;2.30;99.90;;;;;;5053370;28;20037;-85
2023/01/17 04:12:35;;;;;;;9.18;1.00;;;2.40;99.90;;;;;;5051430;28;20077;-88
2023/01/17 04:15:01;;;;;;;6.80;0.65;;;2.20;99.90;;;;;;5050551;28;20076;-90
2023/01/17 04:17:27;;;;;;;7.43;0.63;;;4.40;99.90;;;;;;5049575;28;20080;-86
2023/01/17 04:19:52;;;;;;;8.30;0.73;;;1.70;99.90;;;;;;5025794;28;20053;-90
2023/01/17 04:22:18;;;;;;;6.18;0.60;;;2.50;99.90;;;;;;5067045;28;20049;-89
2023/01/17 04:24:44;;;;;;;4.88;0.60;;;2.00;99.90;;;;;;5045422;28;20106;-86
2023/01/17 04:27:13;;;;;;;7.68;0.57;;;4.30;99.90;;;;;;5055172;28;20492;-88
2023/01/17 04:29:39;;;;;;;3.13;0.50;;;2.50;99.90;;;;;;5037201;28;20049;-88
2023/01/17 04:32:05;;;;;;;4.80;0.30;;;2.40;99.90;;;;;;5038378;28;20063;-84
2023/01/17 04:34:30;;;;;;;5.97;0.50;;;3.80;99.90;;;;;;5035167;28;20090;-84
2023/01/17 04:36:56;;;;;;;5.18;0.57;;;2.40;99.90;;;;;;5035313;28;20123;-83
2023/01/17 04:39:21;;;;;;;2.63;0.20;;;3.70;99.90;;;;;;5051880;28;20044;-85
2023/01/17 04:41:47;;;;;;;0.95;0.20;;;4.20;99.90;;;;;;5034790;28;20127;-84
2023/01/17 04:44:13;;;;;;;6.45;0.35;;;2.50;99.90;;;;;;5051925;28;20037;-85
2023/01/17 04:46:38;;;;;;;2.75;0.20;;;3.80;99.90;;;;;;5070933;28;20424;-85
2023/01/17 04:49:04;;;;;;;4.70;0.50;;;2.40;99.90;;;;;;5049479;28;20460;-83
2023/01/17 04:51:30;;;;;;;4.85;0.55;;;2.40;99.90;;;;;;5039909;28;20048;-85
2023/01/17 04:53:55;;;;;;;5.18;0.65;;;1.50;99.90;;;;;;5059848;28;20041;-84
2023/01/17 04:56:21;;;;;;;2.10;0.20;;;2.30;99.90;;;;;;5052456;28;20112;-85
2023/01/17 04:58:47;;;;;;;5.07;0.88;;;2.10;99.90;;;;;;5034953;28;20516;-84
2023/01/17 05:01:12;;;;;;;5.18;0.38;;;2.10;99.90;;;;;;5035798;28;20506;-87
2023/01/17 05:03:38;;;;;;;7.00;0.85;;;1.80;99.90;;;;;;5044795;28;20102;-87
2023/01/17 05:06:04;;;;;;;1.90;0.40;;;1.90;99.90;;;;;;5042636;28;20040;-86
2023/01/17 05:08:29;;;;;;;4.32;0.52;;;2.00;99.90;;;;;;5062090;28;20048;-87
2023/01/17 05:10:55;;;;;;;3.50;0.30;;;3.40;99.90;;;;;;5061446;28;20072;-84
2023/01/17 05:13:21;;;;;;;7.80;0.50;;;3.60;99.90;;;;;;5027678;28;20445;-83
2023/01/17 05:15:46;;;;;;;6.75;0.60;;;4.00;99.90;;;;;;5043874;28;20555;-83
2023/01/17 05:18:16;;;;;;;6.15;0.57;;;4.30;99.90;;;;;;5046969;28;20107;-83
2023/01/17 05:20:43;;;;;;;3.88;0.52;;;1.90;99.90;;;;;;5050799;28;20036;-83
2023/01/17 05:23:09;;;;;;;5.88;0.57;;;2.00;99.90;;;;;;5051806;28;20059;-84
2023/01/17 05:25:35;;;;;;;6.88;0.98;;;2.00;99.90;;;;;;5042519;28;20048;-89
2023/01/17 05:28:01;;;;;;;2.83;0.38;;;2.90;99.90;;;;;;5026818;28;20048;-83
2023/01/17 05:30:29;;;;;;;8.20;1.00;;;1.90;99.90;;;;;;5049059;28;20078;-85
2023/01/17 05:32:56;;;;;;;7.13;1.48;;;3.30;99.90;;;;;;5066060;28;20838;-89
2023/01/17 05:35:25;;;;;;;2.30;0.47;;;1.60;99.90;;;;;;5034653;28;20048;-88
2023/01/17 05:37:51;;;;;;;12.60;0.55;;;1.70;99.90;;;;;;5043696;28;20064;-84
2023/01/17 05:40:19;;;;;;;3.40;0.43;;;1.80;99.90;;;;;;5033732;28;20060;-84
2023/01/17 05:42:49;;;;;;;8.20;0.55;;;1.80;99.90;;;;;;5035349;28;20479;-87
2023/01/17 05:45:16;;;;;;;3.28;0.43;;;1.80;99.90;;;;;;5034696;28;20086;-86
2023/01/17 05:47:43;;;;;;;3.72;0.98;;;1.70;99.90;;;;;;5034522;28;20058;-84
2023/01/17 05:50:14;;;;;;;6.43;0.80;;;3.50;99.90;;;;;;5033143;28;20040;-85
2023/01/17 05:52:40;;;;;;;7.88;0.57;;;1.70;99.90;;;;;;5061387;28;20500;-84
2023/01/17 05:55:07;;;;;;;8.38;0.98;;;1.60;99.90;;;;;;5034701;28;20398;-87
2023/01/17 05:57:33;;;;;;;8.45;0.50;;;1.60;99.90;;;;;;5035065;28;20136;-87
2023/01/17 06:00:00;;;;;;;6.45;0.77;;;1.10;99.90;;;;;;5043210;28;20126;-83
2023/01/17 06:02:25;;;;;;;5.20;0.77;;;2.20;99.90;;;;;;5059548;28;20124;-83
2023/01/17 06:04:51;;;;;;;4.57;0.40;;;2.00;99.90;;;;;;4352015;28;10000699;-85
2023/01/17 06:07:16;;;;;;;5.50;0.55;;;2.00;99.90;;;;;;5039941;28;20072;-82
2023/01/17 06:09:42;;;;;;;12.02;1.10;;;1.50;99.90;;;;;;5055712;28;20094;-84
2023/01/17 06:12:08;;;;;;;3.58;0.77;;;3.20;99.90;;;;;;5029117;28;20095;-84
2023/01/17 06:14:33;;;;;;;3.67;0.30;;;3.00;99.90;;;;;;5030991;28;20563;-84
2023/01/17 06:16:59;;;;;;;6.55;0.55;;;1.30;99.90;;;;;;5031471;28;20048;-83
2023/01/17 06:19:25;;;;;;;11.57;0.73;;;1.40;99.90;;;;;;5047810;28;20048;-87
2023/01/17 06:21:50;;;;;;;6.15;1.08;;;1.20;99.90;;;;;;5054123;28;20574;-84
2023/01/17 06:24:16;;;;;;;8.82;0.73;;;1.40;99.90;;;;;;5044189;28;20080;-84
2023/01/17 06:26:47;;;;;;;5.38;0.68;;;1.30;99.90;;;;;;5046411;28;20037;-83
2023/01/17 06:29:13;;;;;;;2.08;0.22;;;0.50;99.90;;;;;;5032682;28;20044;-82
2023/01/17 06:31:38;;;;;;;6.43;1.08;;;0.50;99.90;;;;;;5046171;28;20028;-85
2023/01/17 06:34:04;;;;;;;1.98;0.60;;;1.10;99.90;;;;;;5047404;28;20044;-85
2023/01/17 06:36:32;;;;;;;2.80;0.60;;;0.50;99.90;;;;;;5033195;28;20036;-83
2023/01/17 06:38:58;;;;;;;9.23;0.75;;;1.00;99.90;;;;;;5048796;28;20415;-84
2023/01/17 06:41:24;;;;;;;2.92;0.35;;;1.00;99.90;;;;;;5058074;28;20041;-83
2023/01/17 06:43:52;;;;;;;2.25;0.50;;;0.90;99.90;;;;;;5033577;28;20041;-84
2023/01/17 06:46:18;;;;;;;3.80;0.40;;;0.50;99.90;;;;;;5050267;28;20113;-83
2023/01/17 06:48:44;;;;;;;8.85;0.73;;;0.80;99.90;;;;;;5041777;28;20523;-84
2023/01/17 06:51:10;;;;;;;1.40;0.20;;;0.90;99.90;;;;;;5030004;28;20041;-83
2023/01/17 06:53:35;;;;;;;8.00;1.08;;;2.20;99.90;;;;;;5033006;28;20044;-85
2023/01/17 06:56:01;;;;;;;7.10;0.30;;;0.60;99.90;;;;;;5060223;28;20033;-83
2023/01/17 06:58:27;;;;;;;4.28;0.75;;;2.50;99.90;;;;;;5032425;28;20488;-83
2023/01/17 07:00:53;;;;;;;6.40;0.63;;;-0.30;99.90;;;;;;5050145;28;20055;-83
2023/01/17 07:03:24;;;;;;;14.73;0.57;;;3.20;99.90;;;;;;5033148;28;20044;-83
2023/01/17 07:05:50;;;;;;;3.17;0.45;;;1.40;99.90;;;;;;5049652;28;20036;-82
2023/01/17 07:08:17;;;;;;;3.83;0.28;;;2.40;99.90;;;;;;5050122;28;20041;-83
2023/01/17 07:10:43;;;;;;;2.05;0.57;;;0.90;99.90;;;;;;5032835;28;20044;-83
2023/01/17 07:13:10;;;;;;;5.38;0.90;;;2.80;99.90;;;;;;5039505;28;20407;-84
2023/01/17 07:15:36;;;;;;;3.75;0.43;;;0.80;99.90;;;;;;5027083;28;20179;-83
2023/01/17 07:18:03;;;;;;;5.85;0.45;;;0.20;99.90;;;;;;5038923;28;20128;-81
2023/01/17 07:20:29;;;;;;;4.18;0.55;;;0.90;99.90;;;;;;5041230;28;20045;-83
2023/01/17 07:22:54;;;;;;;0.73;0.50;;;0.60;99.90;;;;;;5050005;28;20051;-85
2023/01/17 07:25:20;;;;;;;2.95;0.20;;;0.80;99.90;;;;;;5055573;28;20051;-82
2023/01/17 07:27:46;;;;;;;6.65;0.65;;;2.60;99.90;;;;;;5026613;28;20154;-83
2023/01/17 07:30:12;;;;;;;2.83;0.52;;;2.50;99.90;;;;;;5061070;28;20040;-82
2023/01/17 07:32:38;;;;;;;4.78;0.75;;;0.90;99.90;;;;;;5052859;28;20109;-82
2023/01/17 07:35:05;;;;;;;4.32;0.47;;;3.10;99.90;;;;;;5035853;28;20123;-84
2023/01/17 07:37:30;;;;;;;8.07;0.93;;;1.50;99.90;;;;;;5036488;28;20040;-83
2023/01/17 07:39:56;;;;;;;4.78;1.50;;;0.60;99.90;;;;;;5044736;28;20036;-85
2023/01/17 07:42:22;;;;;;;4.15;0.50;;;3.10;99.90;;;;;;5053196;28;20036;-83
2023/01/17 07:44:51;;;;;;;1.70;0.35;;;3.10;99.90;;;;;;5063338;28;20131;-84
2023/01/17 07:47:16;;;;;;;5.50;0.30;;;0.80;99.90;;;;;;5032953;28;20053;-82
2023/01/17 07:49:42;;;;;;;3.20;0.68;;;0.90;99.90;;;;;;5037229;28;20120;-86
2023/01/17 07:52:08;;;;;;;4.90;0.60;;;0.90;99.90;;;;;;5044642;28;20045;-83
2023/01/17 07:54:34;;;;;;;1.20;0.32;;;1.70;99.90;;;;;;5052250;28;20105;-87
2023/01/17 07:57:00;;;;;;;6.45;0.60;;;0.90;99.90;;;;;;5053054;28;20040;-83
2023/01/17 07:59:26;;;;;;;4.05;0.50;;;1.00;99.90;;;;;;5059208;28;20037;-84
2023/01/17 08:01:51;;;;;;;2.75;0.40;;;2.80;99.90;;;;;;5049291;28;20389;-83
2023/01/17 08:04:17;;;;;;;6.90;0.80;;;2.30;99.90;;;;;;5061473;28;20063;-82
2023/01/17 08:06:49;;;;;;;2.88;0.93;;;0.90;99.90;;;;;;5044870;28;20067;-84
2023/01/17 08:09:16;;;;;;;3.55;0.60;;;0.70;99.90;;;;;;5050577;28;20321;-84
2023/01/17 08:11:41;;;;;;;4.60;0.60;;;0.30;99.90;;;;;;5053230;28;20078;-82
2023/01/17 08:14:07;;;;;;;7.38;1.83;;;2.70;99.90;;;;;;5062178;28;20470;-83
2023/01/17 08:16:33;;;;;;;10.63;2.75;;;0.60;99.90;;;;;;5062503;28;20493;-84
2023/01/17 08:18:58;;;;;;;3.92;0.65;;;0.90;99.90;;;;;;5036308;28;20457;-83
2023/01/17 08:21:24;;;;;;;3.95;0.88;;;1.00;99.90;;;;;;5040152;28;20041;-83
2023/01/17 08:23:51;;;;;;;3.88;0.40;;;1.40;99.90;;;;;;5046084;28;20041;-83
2023/01/17 08:26:21;;;;;;;7.75;0.50;;;0.60;99.90;;;;;;5051577;28;20086;-82
2023/01/17 08:28:55;;;;;;;7.60;1.23;;;0.60;99.90;;;;;;5019472;28;20040;-83
2023/01/17 08:31:21;;;;;;;3.10;0.35;;;2.40;99.90;;;;;;5041093;28;20037;-83
2023/01/17 08:33:47;;;;;;;4.78;1.27;;;0.70;99.90;;;;;;5052563;28;20036;-83
2023/01/17 08:36:13;;;;;;;5.45;0.22;;;1.00;99.90;;;;;;5043418;28;20524;-82
2023/01/17 08:38:38;;;;;;;1.48;0.30;;;2.50;99.90;;;;;;5044209;28;20048;-82
2023/01/17 08:41:04;;;;;;;3.35;0.25;;;1.00;99.90;;;;;;5034189;28;20044;-83
2023/01/17 08:43:30;;;;;;;4.22;0.88;;;3.00;99.90;;;;;;5051414;28;20055;-83
2023/01/17 08:45:56;;;;;;;8.98;3.78;;;;;;;;;;5036359;28;20373;-82
2023/01/17 08:48:24;;;;;;;4.97;0.93;;;1.00;99.90;;;;;;5035340;28;20452;-82
2023/01/17 08:50:50;;;;;;;6.30;1.05;;;0.10;99.90;;;;;;5061867;28;20119;-84
2023/01/17 08:53:17;;;;;;;2.88;0.52;;;3.20;99.90;;;;;;5033898;28;20135;-84
2023/01/17 08:55:42;;;;;;;2.90;1.00;;;0.50;99.90;;;;;;5058904;28;20480;-84
2023/01/17 08:58:08;;;;;;;2.88;0.52;;;1.00;99.90;;;;;;5051705;28;20085;-83
2023/01/17 09:00:34;;;;;;;5.35;0.77;;;1.00;99.90;;;;;;5051942;28;20546;-84
2023/01/17 09:03:00;;;;;;;2.60;0.32;;;2.80;99.90;;;;;;5044260;28;20068;-84
2023/01/17 09:05:26;;;;;;;4.55;0.55;;;1.00;99.90;;;;;;5031456;28;20114;-82
2023/01/17 09:07:53;;;;;;;5.60;0.77;;;0.80;99.90;;;;;;5045598;28;20041;-83
2023/01/17 09:10:18;;;;;;;5.05;1.35;;;0.40;99.90;;;;;;5048941;28;20076;-86
2023/01/17 09:12:44;;;;;;;2.28;0.65;;;1.00;99.90;;;;;;5044163;28;20126;-86
2023/01/17 09:15:13;;;;;;;3.85;0.95;;;3.60;99.90;;;;;;5034751;28;20044;-84
2023/01/17 09:17:39;;;;;;;7.00;0.40;;;1.40;99.90;;;;;;5034806;28;20123;-84
2023/01/17 09:20:05;;;;;;;2.75;0.32;;;1.30;99.90;;;;;;5043716;28;20128;-86
2023/01/17 09:22:31;;;;;;;4.28;0.38;;;1.40;99.90;;;;;;5060645;28;20044;-84
2023/01/17 09:24:56;;;;;;;2.15;0.40;;;1.50;99.90;;;;;;5050855;28;20040;-86
2023/01/17 09:27:22;;;;;;;4.78;0.40;;;3.50;99.90;;;;;;5049428;28;20141;-84
2023/01/17 09:29:48;;;;;;;3.95;0.70;;;1.30;99.90;;;;;;5057923;28;20435;-83
2023/01/17 09:32:15;;;;;;;4.63;0.70;;;3.30;99.90;;;;;;5033614;28;20113;-83
2023/01/17 09:34:41;;;;;;;1.90;0.47;;;1.60;99.90;;;;;;5060892;28;20036;-83
2023/01/17 09:37:07;;;;;;;5.80;0.60;;;3.70;99.90;;;;;;5060940;28;20495;-82
2023/01/17 09:39:33;;;;;;;8.57;0.57;;;2.90;99.90;;;;;;5047136;28;20495;-84
2023/01/17 09:42:07;;;;;;;6.05;1.10;;;1.70;99.90;;;;;;5057696;28;20044;-83
2023/01/17 09:44:53;;;;;;;;;;;1.80;99.90;;;;;;5051304;28;20260;-83
2023/01/17 09:47:38;;;;;;;;;;;3.40;99.90;;;;;;5040630;28;19982;-83
2023/01/17 09:50:07;;;;;;;4.28;0.40;;;2.10;99.90;;;;;;5043417;28;20281;-83
2023/01/17 09:52:33;;;;;;;3.05;0.38;;;2.20;99.90;;;;;;5041366;28;20049;-83
2023/01/17 09:54:58;;;;;;;4.53;0.77;;;3.20;99.90;;;;;;5060783;28;20142;-83
2023/01/17 09:57:24;;;;;;;2.53;0.60;;;2.30;99.90;;;;;;5040458;28;20041;-83
2023/01/17 10:00:34;;;;;;;4.28;0.30;;;2.20;99.90;;;;;;5033751;28;20076;-84
2023/01/17 10:03:18;;;;;;;7.60;0.63;;;2.30;99.90;;;;;;5035415;28;20594;-83
2023/01/17 10:05:43;;;;;;;2.85;0.50;;;2.30;99.90;;;;;;5060470;28;20484;-83
2023/01/17 10:08:37;;;;;;;6.38;0.40;;;2.20;99.90;;;;;;5041856;28;20056;-84
2023/01/17 10:11:41;;;;;;;4.60;1.10;;;2.20;99.90;;;;;;5054455;28;20119;-87
2023/01/17 10:14:31;;;;;;;5.00;0.75;;;2.30;99.90;;;;;;5015463;28;20148;-84
2023/01/17 10:17:20;;;;;;;6.35;0.52;;;2.30;99.90;;;;;;5036687;28;20391;-86
2023/01/17 10:20:07;;;;;;;6.78;0.47;;;2.40;99.90;;;;;;5043014;28;20454;-87
2023/01/17 10:23:14;;;;;;;3.92;0.47;;;2.40;99.90;;;;;;5030599;28;20052;-86
2023/01/17 10:25:50;;;;;;;5.93;0.43;;;2.50;99.90;;;;;;5033567;28;20524;-84
2023/01/17 10:28:20;;;;;;;2.75;0.13;;;2.60;99.90;;;;;;5059461;28;20379;-83
2023/01/17 10:31:07;;;;;;;4.60;0.30;;;2.60;99.90;;;;;;5042665;28;20044;-83
2023/01/17 10:33:53;;;;;;;7.55;1.05;;;2.60;99.90;;;;;;5057435;28;20044;-83
2023/01/17 10:36:24;;;;;;;2.88;0.38;;;2.70;99.90;;;;;;5055264;28;20493;-83
2023/01/17 10:38:56;;;;;;;5.57;0.35;;;2.70;99.90;;;;;;5050258;28;20431;-83
2023/01/17 10:41:28;;;;;;;2.28;0.55;;;2.70;99.90;;;;;;5041020;28;20037;-84
2023/01/17 10:44:11;;;;;;;5.72;0.50;;;2.80;99.90;;;;;;5056539;28;20473;-83
2023/01/17 10:47:03;;;;;;;7.57;0.68;;;2.80;99.90;;;;;;5033402;28;20052;-84
2023/01/17 10:49:29;;;;;;;5.90;0.40;;;2.80;99.90;;;;;;5047641;28;20171;-83
2023/01/17 10:52:01;;;;;;;4.28;0.30;;;2.70;99.90;;;;;;5033951;28;20043;-83
2023/01/17 10:54:26;;;;;;;9.07;1.15;;;2.80;99.90;;;;;;5041356;28;20075;-83
2023/01/17 10:56:52;;;;;;;3.95;0.43;;;3.20;99.90;;;;;;5041262;28;20484;-84
2023/01/17 10:59:33;;;;;;;5.00;0.40;;;2.80;99.90;;;;;;5049570;28;20205;-83
2023/01/17 11:02:05;;;;;;;5.15;0.47;;;2.90;99.90;;;;;;5053851;28;20040;-88
2023/01/17 11:04:38;;;;;;;3.17;0.40;;;2.80;99.90;;;;;;5032140;28;20053;-87
2023/01/17 11:07:19;;;;;;;1.48;0.45;;;3.00;99.90;;;;;;5037750;28;20048;-86
2023/01/17 11:09:50;;;;;;;1.77;0.38;;;3.00;99.90;;;;;;5036469;28;20356;-87
2023/01/17 11:12:38;;;;;;;4.85;0.60;;;3.00;99.90;;;;;;5045331;28;20557;-84
2023/01/17 11:15:16;;;;;;;12.02;1.00;;;3.00;99.90;;;;;;5039983;28;20411;-86
2023/01/17 11:17:59;;;;;;;2.83;0.30;;;3.10;99.90;;;;;;5034114;28;20041;-87
2023/01/17 11:20:39;;;;;;;1.58;0.30;;;3.00;99.90;;;;;;5036297;28;20048;-86
2023/01/17 11:23:20;;;;;;;2.25;0.17;;;3.10;99.90;;;;;;5054054;28;20033;-85
2023/01/17 11:26:01;;;;;;;6.78;0.70;;;3.20;99.90;;;;;;5033504;28;20114;-86
2023/01/17 11:28:31;;;;;;;5.20;0.55;;;3.20;99.90;;;;;;5036521;28;20476;-86
2023/01/17 11:31:03;;;;;;;2.70;0.40;;;3.20;99.90;;;;;;5044678;28;20055;-86
2023/01/17 11:33:44;;;;;;;2.40;0.55;;;3.30;99.90;;;;;;5035681;28;20044;-83
2023/01/17 11:36:26;;;;;;;4.95;0.50;;;3.50;99.90;;;;;;5037135;28;20047;-83
2023/01/17 11:39:13;;;;;;;5.32;0.88;;;3.40;99.90;;;;;;5036743;28;20048;-86
2023/01/17 11:41:40;;;;;;;3.55;0.50;;;3.50;99.90;;;;;;5059760;28;20090;-87
2023/01/17 11:44:25;;;;;;;5.72;0.47;;;5.30;99.90;;;;;;5036917;28;20037;-84
2023/01/17 11:47:07;;;;;;;5.47;0.52;;;3.60;99.90;;;;;;5036399;28;20040;-86
2023/01/17 11:49:33;;;;;;;7.13;0.63;;;5.00;99.90;;;;;;5043724;28;20052;-84
2023/01/17 11:51:59;;;;;;;2.30;0.38;;;3.70;99.90;;;;;;5052916;28;20047;-84
2023/01/17 11:54:37;;;;;;;2.67;0.70;;;5.50;99.90;;;;;;5044522;28;20044;-85
2023/01/17 11:57:04;;;;;;;4.78;0.40;;;5.40;99.90;;;;;;5038476;28;20041;-83
2023/01/17 11:59:41;;;;;;;8.30;0.82;;;5.90;99.90;;;;;;5043145;28;20090;-83
2023/01/17 12:02:34;;;;;;;1.02;0.20;;;3.70;99.90;;;;;;5059490;28;20036;-85
2023/01/17 12:05:22;;;;;;;6.03;0.40;;;3.80;99.90;;;;;;5037653;28;20036;-83
2023/01/17 12:08:19;;;;;;;1.95;0.38;;;3.90;99.90;;;;;;5059462;28;20047;-85
2023/01/17 12:11:07;;;;;;;2.90;0.30;;;3.90;99.90;;;;;;5036061;28;20511;-84
2023/01/17 12:14:00;;;;;;;9.07;2.05;;;3.90;99.90;;;;;;5034789;28;20047;-84
2023/01/17 12:16:34;;;;;;;2.05;0.28;;;4.00;99.90;;;;;;5035517;28;20043;-85
2023/01/17 12:19:31;;;;;;;3.90;0.50;;;4.10;99.90;;;;;;5033607;28;20044;-84
2023/01/17 12:22:18;;;;;;;4.03;0.80;;;4.10;99.90;;;;;;5044696;28;20045;-84
2023/01/17 12:25:02;;;;;;;4.05;0.30;;;4.10;99.90;;;;;;5059296;28;20056;-84
2023/01/17 12:27:31;;;;;;;8.23;0.73;;;4.00;99.90;;;;;;5034722;28;20044;-84
2023/01/17 12:29:57;;;;;;;3.03;0.45;;;4.00;99.90;;;;;;5036322;28;20654;-84
2023/01/17 12:32:43;;;;;;;3.42;0.40;;;5.50;99.90;;;;;;5051657;28;20047;-84
2023/01/17 12:35:17;;;;;;;5.03;0.38;;;3.80;99.90;;;;;;5055197;28;20124;-84
2023/01/17 12:37:46;;;;;;;3.45;0.43;;;5.80;99.90;;;;;;5051052;28;20036;-84
2023/01/17 12:40:32;;;;;;;3.80;0.40;;;6.10;99.90;;;;;;5034658;28;20129;-84
2023/01/17 12:43:18;;;;;;;5.63;0.68;;;3.60;99.90;;;;;;5062086;28;20043;-84
2023/01/17 12:45:46;;;;;;;3.33;0.57;;;3.50;99.90;;;;;;5051151;28;20045;-85
2023/01/17 12:48:17;;;;;;;1.88;0.30;;;5.40;99.90;;;;;;5046256;28;20088;-83
2023/01/17 12:50:58;;;;;;;3.58;0.82;;;5.40;99.90;;;;;;5033146;28;20053;-85
2023/01/17 12:53:40;;;;;;;5.07;0.32;;;3.40;99.90;;;;;;5050956;28;20051;-84
2023/01/17 12:56:35;;;;;;;2.50;0.30;;;3.40;99.90;;;;;;5028351;28;20029;-84
2023/01/17 12:59:13;;;;;;;;;;;3.30;99.90;;;;;;5036067;28;20479;-84
2023/01/17 13:01:41;;;;;;;2.45;0.77;;;3.30;99.90;;;;;;5042395;28;19924;-83
2023/01/17 13:04:49;;;;;;;8.80;1.45;;;4.10;99.90;;;;;;5047294;28;20515;-84
2023/01/17 13:07:31;;;;;;;4.85;0.65;;;3.50;99.90;;;;;;5000035;28;20052;-84
2023/01/17 13:10:53;;;;;;;2.00;0.32;;;3.60;99.90;;;;;;5032180;28;20095;-84
2023/01/17 13:13:24;;;;;;;7.28;0.35;;;3.70;99.90;;;;;;4957661;28;20214;-84
2023/01/17 13:15:58;;;;;;;2.45;0.30;;;3.80;99.90;;;;;;4971839;28;20042;-87
2023/01/17 13:18:28;;;;;;;4.85;0.17;;;5.00;99.90;;;;;;5022087;28;20377;-85
2023/01/17 13:21:30;;;;;;;2.95;0.28;;;3.90;99.90;;;;;;5035436;28;20052;-83
2023/01/17 13:24:11;;;;;;;0.95;0.43;;;4.00;99.90;;;;;;5042280;28;20048;-87
2023/01/17 13:26:38;;;;;;;4.18;0.50;;;4.10;99.90;;;;;;5033964;28;20041;-87
2023/01/17 13:29:32;;;;;;;4.63;0.75;;;6.00;99.90;;;;;;5042489;28;20491;-85
2023/01/17 13:32:22;;;;;;;6.75;0.60;;;4.20;99.90;;;;;;5040332;28;20036;-84
2023/01/17 13:35:00;;;;;;;4.72;0.30;;;4.20;99.90;;;;;;5042872;28;20088;-84
2023/01/17 13:37:59;;;;;;;5.75;0.38;;;4.20;99.90;;;;;;5033838;28;20098;-84
2023/01/17 13:40:39;;;;;;;13.73;0.80;;;4.20;99.90;;;;;;5045143;28;20040;-84
2023/01/17 13:43:12;;;;;;;6.53;0.50;;;4.20;99.90;;;;;;5042229;28;20044;-84
2023/01/17 13:45:38;;;;;;;7.50;0.30;;;4.20;99.90;;;;;;5060677;28;20476;-84
2023/01/17 13:48:17;;;;;;;5.90;0.35;;;4.20;99.90;;;;;;5057943;28;20037;-84
2023/01/17 13:50:49;;;;;;;7.00;1.20;;;4.20;99.90;;;;;;5050550;28;20102;-85
2023/01/17 13:53:33;;;;;;;1.10;0.20;;;4.20;99.90;;;;;;5060658;28;20067;-84
2023/01/17 13:56:18;;;;;;;3.83;0.10;;;5.30;99.90;;;;;;5032053;28;20043;-83
2023/01/17 13:58:53;;;;;;;0.20;0.08;;;4.20;99.90;;;;;;5057011;28;20052;-84
2023/01/17 14:01:21;;;;;;;;;;;4.20;99.90;;;;;;5060468;28;20040;-84
2023/01/17 14:03:55;;;;;;;1.33;0.10;;;4.20;99.90;;;;;;5057924;28;19920;-84
2023/01/17 14:07:02;;;;;;;2.60;0.20;;;4.10;99.90;;;;;;5050274;28;20036;-87
2023/01/17 14:09:43;;;;;;;5.22;1.75;;;4.10;99.90;;;;;;5028388;28;20040;-84
2023/01/17 14:12:12;;;;;;;4.72;0.52;;;3.90;99.90;;;;;;5033264;28;20040;-85
2023/01/17 14:14:49;;;;;;;1.20;0.43;;;3.60;99.90;;;;;;5059541;28;20048;-84
2023/01/17 14:17:21;;;;;;;2.42;0.35;;;3.90;99.90;;;;;;5035228;28;20412;-84
2023/01/17 14:19:50;;;;;;;0.63;0.25;;;3.90;99.90;;;;;;5045461;28;20146;-83
2023/01/17 14:22:18;;;;;;;16.10;1.38;;;4.70;99.90;;;;;;5047198;28;20048;-84
2023/01/17 14:25:21;;;;;;;6.43;0.40;;;5.00;99.90;;;;;;5030127;28;20041;-87
2023/01/17 14:27:50;;;;;;;3.47;0.40;;;3.90;99.90;;;;;;4978606;28;20223;-84
2023/01/17 14:30:16;;;;;;;1.13;0.20;;;5.20;99.90;;;;;;5035837;28;20088;-84
2023/01/17 14:33:00;;;;;;;1.73;0.20;;;4.00;99.90;;;;;;5030059;28;20041;-84
2023/01/17 14:35:32;;;;;;;3.58;0.20;;;3.70;99.90;;;;;;5057191;28;20076;-85
2023/01/17 14:38:01;;;;;;;2.78;0.20;;;5.40;99.90;;;;;;5048456;28;20482;-83
2023/01/17 14:40:30;;;;;;;3.03;0.22;;;3.60;99.90;;;;;;5045718;28;20056;-84
2023/01/17 14:43:08;;;;;;;16.67;0.93;;;3.70;99.90;;;;;;5046841;28;20045;-84
2023/01/17 14:45:35;;;;;;;2.13;0.38;;;5.20;99.90;;;;;;5046793;28;20056;-84